createdAt,value
2018-10-12T00:03:48.801Z,12.63
2018-10-12T00:08:52.157Z,12.93
2018-10-12T00:13:55.534Z,12.30
2018-10-12T00:18:58.872Z,12.80
2018-10-12T00:24:02.253Z,12.47
2018-10-12T00:29:05.801Z,12.17
2018-10-12T00:34:09.157Z,11.37
2018-10-12T00:39:19.298Z,12.60
2018-10-12T00:44:22.671Z,11.97
2018-10-12T00:49:26.026Z,12.10
2018-10-12T00:54:29.390Z,11.80
2018-10-12T00:59:32.747Z,12.63
2018-10-12T01:04:36.118Z,12.83
2018-10-12T01:09:39.514Z,12.23
2018-10-12T01:14:43.146Z,12.83
2018-10-12T01:19:46.491Z,11.63
2018-10-12T01:24:49.975Z,11.87
2018-10-12T01:29:53.766Z,12.50
2018-10-12T01:34:57.138Z,12.03
2018-10-12T01:40:00.520Z,12.57
2018-10-12T01:45:03.893Z,11.50
2018-10-12T01:50:07.250Z,12.27
2018-10-12T01:55:10.634Z,11.20
2018-10-12T02:00:14.010Z,12.30
2018-10-12T02:05:17.345Z,11.83
2018-10-12T02:10:20.678Z,12.77
2018-10-12T02:15:24.022Z,11.87
2018-10-12T02:20:27.403Z,13.03
2018-10-12T02:25:30.763Z,12.20
2018-10-12T02:30:34.169Z,12.50
2018-10-12T02:35:37.548Z,12.30
2018-10-12T02:40:40.950Z,12.20
2018-10-12T02:45:44.294Z,12.17
2018-10-12T02:50:47.638Z,11.77
2018-10-12T02:55:51.006Z,12.03
2018-10-12T03:00:54.434Z,12.30
2018-10-12T03:05:57.796Z,11.50
2018-10-12T03:11:01.171Z,12.20
2018-10-12T03:16:04.551Z,12.53
2018-10-12T03:21:07.950Z,11.80
2018-10-12T03:26:11.329Z,12.47
2018-10-12T03:31:14.731Z,12.83
2018-10-12T03:36:18.102Z,11.60
2018-10-12T03:41:21.475Z,11.73
2018-10-12T03:46:24.829Z,12.30
2018-10-12T03:51:28.219Z,12.40
2018-10-12T03:56:31.582Z,12.67
2018-10-12T04:01:35.036Z,12.27
2018-10-12T04:06:38.429Z,13.57
2018-10-12T04:11:41.791Z,12.77
2018-10-12T04:16:45.169Z,12.90
2018-10-12T04:21:48.526Z,13.10
2018-10-12T04:26:51.916Z,13.10
2018-10-12T04:31:55.310Z,12.77
2018-10-12T04:36:58.722Z,13.27
2018-10-12T04:42:02.136Z,13.70
2018-10-12T04:47:05.901Z,13.57
2018-10-12T04:52:09.291Z,14.23
2018-10-12T04:57:12.656Z,13.77
2018-10-12T05:02:16.006Z,14.10
2018-10-12T05:07:19.389Z,13.97
2018-10-12T05:12:22.779Z,14.73
2018-10-12T05:17:26.150Z,14.13
2018-10-12T05:22:29.552Z,13.60
2018-10-12T05:27:32.900Z,14.53
2018-10-12T05:32:36.281Z,15.23
2018-10-12T05:37:39.886Z,15.73
2018-10-12T05:42:43.342Z,14.83
2018-10-12T05:47:46.666Z,14.63
2018-10-12T05:52:50.125Z,14.97
2018-10-12T05:57:53.535Z,14.87
2018-10-12T06:02:56.878Z,15.13
2018-10-12T06:08:00.261Z,14.70
2018-10-12T06:13:03.643Z,15.33
2018-10-12T06:18:09.206Z,15.60
2018-10-12T06:23:12.598Z,14.77
2018-10-12T06:28:15.970Z,14.70
2018-10-12T06:33:19.554Z,14.27
2018-10-12T06:38:22.932Z,15.70
2018-10-12T06:43:26.338Z,15.10
2018-10-12T06:48:29.701Z,14.77
2018-10-12T06:53:33.090Z,14.57
2018-10-12T06:58:36.439Z,14.10
2018-10-12T07:03:40.196Z,14.63
2018-10-12T07:08:43.198Z,14.67
2018-10-12T07:13:47.066Z,13.83
2018-10-12T07:18:50.823Z,14.07
2018-10-12T07:23:54.203Z,14.40
2018-10-12T07:28:57.571Z,14.77
2018-10-12T07:34:00.914Z,14.00
2018-10-12T07:39:05.872Z,13.93
2018-10-12T07:44:09.283Z,15.00
2018-10-12T07:49:12.643Z,14.40
2018-10-12T07:54:15.994Z,14.30
2018-10-12T07:59:19.342Z,14.60
2018-10-12T08:04:22.700Z,13.63
2018-10-12T08:09:26.080Z,13.90
2018-10-12T08:14:29.445Z,14.50
2018-10-12T08:19:32.798Z,13.77
2018-10-12T08:24:36.154Z,14.23
2018-10-12T08:29:39.507Z,14.67
2018-10-12T08:34:42.899Z,13.60
2018-10-12T08:39:46.262Z,14.10
2018-10-12T08:44:49.605Z,13.33
2018-10-12T08:49:52.995Z,13.37
2018-10-12T08:54:56.338Z,13.50
2018-10-12T08:59:59.667Z,12.90
2018-10-12T09:05:03.087Z,12.43
2018-10-12T09:10:07.026Z,13.07
2018-10-12T09:15:10.649Z,13.17
2018-10-12T09:20:14.083Z,11.87
2018-10-12T09:25:17.407Z,12.43
2018-10-12T09:30:20.782Z,13.37
2018-10-12T09:35:24.128Z,12.60
2018-10-12T09:40:28.029Z,11.97
2018-10-12T09:45:31.396Z,11.90
2018-10-12T09:50:34.758Z,12.07
2018-10-12T09:55:38.122Z,11.43
2018-10-12T10:00:46.737Z,11.40
2018-10-12T10:05:50.128Z,11.77
2018-10-12T10:10:53.538Z,11.07
2018-10-12T10:15:57.200Z,11.43
2018-10-12T10:21:00.554Z,11.40
2018-10-12T10:26:03.942Z,9.90
2018-10-12T10:31:07.310Z,10.53
2018-10-12T10:36:10.656Z,11.00
2018-10-12T10:41:14.059Z,10.47
2018-10-12T10:46:17.593Z,10.53
2018-10-12T10:51:20.985Z,10.30
2018-10-12T10:56:24.357Z,10.03
2018-10-12T11:01:27.758Z,10.83
2018-10-12T11:06:31.138Z,10.13
2018-10-12T11:11:34.559Z,10.40
2018-10-12T11:16:37.916Z,10.77
2018-10-12T11:21:41.318Z,10.70
2018-10-12T11:26:44.758Z,10.23
2018-10-12T11:31:48.160Z,10.87
2018-10-12T11:36:51.630Z,9.80
2018-10-12T11:41:55.047Z,10.63
2018-10-12T11:46:58.453Z,10.15
2018-10-12T11:52:01.867Z,10.23
2018-10-12T11:57:05.186Z,9.70
2018-10-12T12:02:09.012Z,9.93
2018-10-12T12:07:12.406Z,9.77
2018-10-12T12:12:15.786Z,10.07
2018-10-12T12:17:19.146Z,10.10
2018-10-12T12:22:22.504Z,9.83
2018-10-12T12:27:25.831Z,9.83
2018-10-12T12:32:29.250Z,9.95
2018-10-12T12:37:32.618Z,8.83
2018-10-12T12:42:36.028Z,9.38
2018-10-12T12:47:39.464Z,9.75
2018-10-12T12:52:42.758Z,9.53
2018-10-12T12:57:46.123Z,9.55
2018-10-12T13:02:49.469Z,10.07
2018-10-12T13:07:52.883Z,9.23
2018-10-12T13:12:56.221Z,9.43
2018-10-12T13:17:59.574Z,8.75
2018-10-12T13:23:02.924Z,8.98
2018-10-12T13:28:06.478Z,10.13
2018-10-12T13:33:09.897Z,9.45
2018-10-12T13:38:13.381Z,9.65
2018-10-12T13:43:16.743Z,9.73
2018-10-12T13:48:20.087Z,9.68
2018-10-12T13:53:23.450Z,9.35
2018-10-12T13:58:26.815Z,9.35
2018-10-12T14:03:30.168Z,8.85
2018-10-12T14:08:33.514Z,9.93
2018-10-12T14:13:36.957Z,9.05
2018-10-12T14:18:40.411Z,9.25
2018-10-12T14:23:43.755Z,9.95
2018-10-12T14:28:47.169Z,9.15
2018-10-12T14:33:50.560Z,9.50
2018-10-12T14:38:53.922Z,9.10
2018-10-12T14:43:57.397Z,9.23
2018-10-12T14:49:00.706Z,9.90
2018-10-12T14:54:04.061Z,9.88
2018-10-12T14:59:07.504Z,10.00
2018-10-12T15:04:10.934Z,9.23
2018-10-12T15:09:14.714Z,9.45
2018-10-12T15:14:18.133Z,9.18
2018-10-12T15:19:21.481Z,9.43
2018-10-12T15:24:24.929Z,9.75
2018-10-12T15:29:28.272Z,10.05
2018-10-12T15:34:31.628Z,10.30
2018-10-12T15:39:35.208Z,10.10
2018-10-12T15:44:38.599Z,9.73
2018-10-12T15:49:42.103Z,11.35
2018-10-12T15:54:45.518Z,11.22
2018-10-12T15:59:50.199Z,10.65
2018-10-12T16:04:53.526Z,10.45
2018-10-12T16:09:56.882Z,10.55
2018-10-12T16:15:00.226Z,10.20
2018-10-12T16:20:03.646Z,10.20
2018-10-12T16:25:18.246Z,11.30
2018-10-12T16:30:21.630Z,10.37
2018-10-12T16:35:24.966Z,11.50
2018-10-12T16:40:28.383Z,11.13
2018-10-12T16:45:31.798Z,10.23
2018-10-12T16:50:35.144Z,11.23
2018-10-12T16:55:38.727Z,11.53
2018-10-12T17:00:42.224Z,11.23
2018-10-12T17:05:45.606Z,11.57
2018-10-12T17:10:49.001Z,11.43
2018-10-12T17:15:52.374Z,12.47
2018-10-12T17:20:55.721Z,11.63
2018-10-12T17:25:59.313Z,11.63
2018-10-12T17:31:02.713Z,12.20
2018-10-12T17:36:06.286Z,11.73
2018-10-12T17:41:13.675Z,11.73
2018-10-12T17:46:17.353Z,11.97
2018-10-12T17:51:20.714Z,12.37
2018-10-12T17:56:24.075Z,12.07
2018-10-12T18:01:27.462Z,12.13
2018-10-12T18:06:30.959Z,12.37
2018-10-12T18:11:34.321Z,12.90
2018-10-12T18:16:37.659Z,12.30
2018-10-12T18:21:41.071Z,12.87
2018-10-12T18:26:44.440Z,13.60
2018-10-12T18:31:47.834Z,13.27
2018-10-12T18:36:51.194Z,13.30
2018-10-12T18:41:54.599Z,13.00
2018-10-12T18:46:57.967Z,13.73
2018-10-12T18:52:02.407Z,13.20
2018-10-12T18:57:05.787Z,13.90
2018-10-12T19:02:09.206Z,13.77
2018-10-12T19:07:12.580Z,14.20
2018-10-12T19:12:16.063Z,14.67
2018-10-12T19:17:19.424Z,14.37
2018-10-12T19:22:23.394Z,13.60
2018-10-12T19:27:26.794Z,14.17
2018-10-12T19:32:30.189Z,14.40
2018-10-12T19:37:33.663Z,14.73
2018-10-12T19:42:38.070Z,14.87
2018-10-12T19:47:41.579Z,14.13
2018-10-12T19:52:45.032Z,15.67
2018-10-12T19:57:48.406Z,14.37
2018-10-12T20:02:51.811Z,15.80
2018-10-12T20:07:55.150Z,15.87
2018-10-12T20:12:58.542Z,14.87
2018-10-12T20:18:02.016Z,15.87
2018-10-12T20:23:05.852Z,16.27
2018-10-12T20:28:09.267Z,16.03
2018-10-12T20:33:12.631Z,16.20
2018-10-12T20:38:16.000Z,16.40
2018-10-12T20:43:19.406Z,16.00
2018-10-12T20:48:22.777Z,15.90
2018-10-12T20:53:26.170Z,15.83
2018-10-12T20:58:29.591Z,15.70
2018-10-12T21:03:32.965Z,16.50
2018-10-12T21:08:36.351Z,15.77
2018-10-12T21:13:39.735Z,16.13
2018-10-12T21:18:43.156Z,16.03
2018-10-12T21:23:46.516Z,16.83
2018-10-12T21:28:50.021Z,15.60
2018-10-12T21:33:53.492Z,15.05
2018-10-12T21:38:56.917Z,15.27
2018-10-12T21:44:00.303Z,17.00
2018-10-12T21:49:03.718Z,16.07
2018-10-12T21:54:07.862Z,16.00
2018-10-12T21:59:12.117Z,16.20
2018-10-12T22:04:15.489Z,16.10
2018-10-12T22:09:18.838Z,16.17
2018-10-12T22:14:22.183Z,16.13
2018-10-12T22:19:25.549Z,16.80
2018-10-12T22:24:28.920Z,16.83
2018-10-12T22:29:32.296Z,17.20
2018-10-12T22:34:35.682Z,16.17
2018-10-12T22:39:41.928Z,17.53
2018-10-12T22:44:45.333Z,16.67
2018-10-12T22:49:48.678Z,17.03
2018-10-12T22:54:52.721Z,17.27
2018-10-12T22:59:56.370Z,17.70
2018-10-12T23:04:59.730Z,17.80
2018-10-12T23:10:03.212Z,18.33
2018-10-12T23:15:06.598Z,17.90
2018-10-12T23:20:10.062Z,18.53
2018-10-12T23:25:13.475Z,18.83
2018-10-12T23:30:16.854Z,18.70
2018-10-12T23:35:20.205Z,17.43
2018-10-12T23:40:24.336Z,18.70
2018-10-12T23:45:27.671Z,18.60
2018-10-12T23:50:31.083Z,17.93
2018-10-12T23:55:34.533Z,18.30
